Main page
METAR-TAF:

METAR-TAF

Airports :

RAF Wittering

Wittering, England

latitude: 52-37N, longitude: 000-28W, elevation: 84 m

Current weather observation

The report was made 51 minutes ago, at 06:50 UTC
Wind 5 kt from the North/Northwest
Temperature 13°C
Humidity 82%
Pressure 1023 hPa
Visibility 10 km or more

METAR: EGXT 150650Z AUTO 34005KT 9999 NCD 13/10 Q1023

Time: 08:41 (07:41 UTC)

Forecast

The report was made 2 hours and 31 minutes ago, at 05:10 UTC
Forecast valid from 15 at 06 UTC to 15 at 15 UTC
Wind 5 kt from variable directions
Visibility 10 km or more
Few clouds at a height of 3000 ft

TAF: EGXT 150510Z 1506/1515 VRB05KT 9999 FEW030

Weather observations and forecasts of more than 4000 airports (METAR and TAF reports).

The available stations are represented by yellow and red dots on the map.

Hover mouse over dot to see the name of the station.

Then click to see weather observations and forecasts.

To change the map : click on the green buttons with a black cross to zoom in, on the green button with a dash to zoom out, or on the green arrows for adjacent maps.


METAR-TAF: